sensor_id;sensor_type;location;lat;lon;timestamp;temperature;humidity
39847;DHT22;25517;52.422;10.782;2022-09-09T00:00:25;14.60;99.90
39847;DHT22;25517;52.422;10.782;2022-09-09T00:03:14;14.60;99.90
39847;DHT22;25517;52.422;10.782;2022-09-09T00:05:59;14.50;99.90
39847;DHT22;25517;52.422;10.782;2022-09-09T00:08:50;14.50;99.90
39847;DHT22;25517;52.422;10.782;2022-09-09T00:11:26;14.50;99.90
39847;DHT22;25517;52.422;10.782;2022-09-09T00:13:53;14.50;99.90
39847;DHT22;25517;52.422;10.782;2022-09-09T00:16:24;14.50;99.90
39847;DHT22;25517;52.422;10.782;2022-09-09T00:21:43;14.40;99.90
39847;DHT22;25517;52.422;10.782;2022-09-09T00:24:23;14.40;99.90
39847;DHT22;25517;52.422;10.782;2022-09-09T00:26:55;14.40;99.90
39847;DHT22;25517;52.422;10.782;2022-09-09T00:29:43;14.40;99.90
39847;DHT22;25517;52.422;10.782;2022-09-09T00:32:16;14.40;99.90
39847;DHT22;25517;52.422;10.782;2022-09-09T00:35:04;14.30;99.90
39847;DHT22;25517;52.422;10.782;2022-09-09T00:37:38;14.40;99.90
39847;DHT22;25517;52.422;10.782;2022-09-09T00:40:18;14.30;99.90
39847;DHT22;25517;52.422;10.782;2022-09-09T00:42:52;14.40;99.90
39847;DHT22;25517;52.422;10.782;2022-09-09T00:48:24;14.40;99.90
39847;DHT22;25517;52.422;10.782;2022-09-09T00:50:57;14.30;99.90
39847;DHT22;25517;52.422;10.782;2022-09-09T00:56:14;14.40;99.90
39847;DHT22;25517;52.422;10.782;2022-09-09T01:01:25;14.30;99.90
39847;DHT22;25517;52.422;10.782;2022-09-09T01:03:54;14.40;99.90
39847;DHT22;25517;52.422;10.782;2022-09-09T01:06:35;14.40;99.90
39847;DHT22;25517;52.422;10.782;2022-09-09T01:12:15;14.40;99.90
39847;DHT22;25517;52.422;10.782;2022-09-09T01:20:20;14.30;99.90
39847;DHT22;25517;52.422;10.782;2022-09-09T01:23:07;14.30;99.90
39847;DHT22;25517;52.422;10.782;2022-09-09T01:28:37;14.30;99.90
39847;DHT22;25517;52.422;10.782;2022-09-09T01:31:05;14.30;99.90
39847;DHT22;25517;52.422;10.782;2022-09-09T01:33:32;14.30;99.90
39847;DHT22;25517;52.422;10.782;2022-09-09T01:36:03;14.30;99.90
39847;DHT22;25517;52.422;10.782;2022-09-09T01:38:31;14.30;99.90
39847;DHT22;25517;52.422;10.782;2022-09-09T01:40:58;14.30;99.90
39847;DHT22;25517;52.422;10.782;2022-09-09T01:43:25;14.30;99.90
39847;DHT22;25517;52.422;10.782;2022-09-09T01:45:53;14.30;99.90
39847;DHT22;25517;52.422;10.782;2022-09-09T01:48:21;14.30;99.90
39847;DHT22;25517;52.422;10.782;2022-09-09T01:50:47;14.40;99.90
39847;DHT22;25517;52.422;10.782;2022-09-09T01:53:15;14.30;99.90
39847;DHT22;25517;52.422;10.782;2022-09-09T01:55:54;14.30;99.90
39847;DHT22;25517;52.422;10.782;2022-09-09T01:58:40;14.30;99.90
39847;DHT22;25517;52.422;10.782;2022-09-09T02:01:53;14.30;99.90
39847;DHT22;25517;52.422;10.782;2022-09-09T02:04:40;14.30;99.90
39847;DHT22;25517;52.422;10.782;2022-09-09T02:07:15;14.30;99.90
39847;DHT22;25517;52.422;10.782;2022-09-09T02:09:47;14.30;99.90
39847;DHT22;25517;52.422;10.782;2022-09-09T02:12:16;14.30;99.90
39847;DHT22;25517;52.422;10.782;2022-09-09T02:14:51;14.30;99.90
39847;DHT22;25517;52.422;10.782;2022-09-09T02:17:25;14.30;99.90
39847;DHT22;25517;52.422;10.782;2022-09-09T02:19:56;14.30;99.90
39847;DHT22;25517;52.422;10.782;2022-09-09T02:22:28;14.30;99.90
39847;DHT22;25517;52.422;10.782;2022-09-09T02:24:57;14.30;99.90
39847;DHT22;25517;52.422;10.782;2022-09-09T02:27:24;14.30;99.90
39847;DHT22;25517;52.422;10.782;2022-09-09T02:29:51;14.30;99.90
39847;DHT22;25517;52.422;10.782;2022-09-09T02:32:21;14.40;99.90
39847;DHT22;25517;52.422;10.782;2022-09-09T02:34:53;14.40;99.90
39847;DHT22;25517;52.422;10.782;2022-09-09T02:37:23;14.40;99.90
39847;DHT22;25517;52.422;10.782;2022-09-09T02:39:53;14.40;99.90
39847;DHT22;25517;52.422;10.782;2022-09-09T02:42:19;14.40;99.90
39847;DHT22;25517;52.422;10.782;2022-09-09T02:44:45;14.50;99.90
39847;DHT22;25517;52.422;10.782;2022-09-09T02:52:35;14.50;99.90
39847;DHT22;25517;52.422;10.782;2022-09-09T02:58:04;14.50;99.90
39847;DHT22;25517;52.422;10.782;2022-09-09T03:00:31;14.50;99.90
39847;DHT22;25517;52.422;10.782;2022-09-09T03:02:58;14.50;99.90
39847;DHT22;25517;52.422;10.782;2022-09-09T03:05:24;14.50;99.90
39847;DHT22;25517;52.422;10.782;2022-09-09T03:07:50;14.50;99.90
39847;DHT22;25517;52.422;10.782;2022-09-09T03:10:16;14.50;99.90
39847;DHT22;25517;52.422;10.782;2022-09-09T03:12:42;14.40;99.90
39847;DHT22;25517;52.422;10.782;2022-09-09T03:15:08;14.50;99.90
39847;DHT22;25517;52.422;10.782;2022-09-09T03:17:35;14.50;99.90
39847;DHT22;25517;52.422;10.782;2022-09-09T03:20:02;14.50;99.90
39847;DHT22;25517;52.422;10.782;2022-09-09T03:22:27;14.50;99.90
39847;DHT22;25517;52.422;10.782;2022-09-09T03:24:53;14.50;99.90
39847;DHT22;25517;52.422;10.782;2022-09-09T03:27:18;14.40;99.90
39847;DHT22;25517;52.422;10.782;2022-09-09T03:29:45;14.40;99.90
39847;DHT22;25517;52.422;10.782;2022-09-09T03:32:11;14.40;99.90
39847;DHT22;25517;52.422;10.782;2022-09-09T03:34:37;14.40;99.90
39847;DHT22;25517;52.422;10.782;2022-09-09T03:37:06;14.40;99.90
39847;DHT22;25517;52.422;10.782;2022-09-09T03:39:32;14.40;99.90
39847;DHT22;25517;52.422;10.782;2022-09-09T03:41:57;14.40;99.90
39847;DHT22;25517;52.422;10.782;2022-09-09T03:44:23;14.40;99.90
39847;DHT22;25517;52.422;10.782;2022-09-09T03:46:48;14.40;99.90
39847;DHT22;25517;52.422;10.782;2022-09-09T03:49:14;14.40;99.90
39847;DHT22;25517;52.422;10.782;2022-09-09T03:51:40;14.40;99.90
39847;DHT22;25517;52.422;10.782;2022-09-09T03:54:07;14.40;99.90
39847;DHT22;25517;52.422;10.782;2022-09-09T03:56:34;14.40;99.90
39847;DHT22;25517;52.422;10.782;2022-09-09T03:58:59;14.50;99.90
39847;DHT22;25517;52.422;10.782;2022-09-09T04:01:26;14.50;99.90
39847;DHT22;25517;52.422;10.782;2022-09-09T04:03:52;14.50;99.90
39847;DHT22;25517;52.422;10.782;2022-09-09T04:06:18;14.50;99.90
39847;DHT22;25517;52.422;10.782;2022-09-09T04:08:45;14.50;99.90
39847;DHT22;25517;52.422;10.782;2022-09-09T04:11:13;14.50;99.90
39847;DHT22;25517;52.422;10.782;2022-09-09T04:13:39;14.50;99.90
39847;DHT22;25517;52.422;10.782;2022-09-09T04:16:05;14.40;99.90
39847;DHT22;25517;52.422;10.782;2022-09-09T04:18:31;14.50;99.90
39847;DHT22;25517;52.422;10.782;2022-09-09T04:20:57;14.50;99.90
39847;DHT22;25517;52.422;10.782;2022-09-09T04:23:24;14.40;99.90
39847;DHT22;25517;52.422;10.782;2022-09-09T04:25:52;14.50;99.90
39847;DHT22;25517;52.422;10.782;2022-09-09T04:28:21;14.40;99.90
39847;DHT22;25517;52.422;10.782;2022-09-09T04:30:48;14.40;99.90
39847;DHT22;25517;52.422;10.782;2022-09-09T04:33:14;14.40;99.90
39847;DHT22;25517;52.422;10.782;2022-09-09T04:35:47;14.40;99.90
39847;DHT22;25517;52.422;10.782;2022-09-09T04:38:13;14.40;99.90
39847;DHT22;25517;52.422;10.782;2022-09-09T04:40:38;14.40;99.90
39847;DHT22;25517;52.422;10.782;2022-09-09T04:43:08;14.40;99.90
39847;DHT22;25517;52.422;10.782;2022-09-09T04:45:34;14.40;99.90
39847;DHT22;25517;52.422;10.782;2022-09-09T04:48:00;14.40;99.90
39847;DHT22;25517;52.422;10.782;2022-09-09T04:50:25;14.50;99.90
39847;DHT22;25517;52.422;10.782;2022-09-09T04:52:51;14.50;99.90
39847;DHT22;25517;52.422;10.782;2022-09-09T04:55:16;14.50;99.90
39847;DHT22;25517;52.422;10.782;2022-09-09T04:57:42;14.50;99.90
39847;DHT22;25517;52.422;10.782;2022-09-09T05:00:08;14.60;99.90
39847;DHT22;25517;52.422;10.782;2022-09-09T05:02:37;14.60;99.90
39847;DHT22;25517;52.422;10.782;2022-09-09T05:05:04;14.70;99.90
39847;DHT22;25517;52.422;10.782;2022-09-09T05:07:30;14.60;99.90
39847;DHT22;25517;52.422;10.782;2022-09-09T05:09:56;14.70;99.90
39847;DHT22;25517;52.422;10.782;2022-09-09T05:12:22;14.70;99.90
39847;DHT22;25517;52.422;10.782;2022-09-09T05:14:49;14.70;99.90
39847;DHT22;25517;52.422;10.782;2022-09-09T05:17:15;14.70;99.90
39847;DHT22;25517;52.422;10.782;2022-09-09T05:19:41;14.70;99.90
39847;DHT22;25517;52.422;10.782;2022-09-09T05:22:07;14.70;99.90
39847;DHT22;25517;52.422;10.782;2022-09-09T05:24:32;14.80;99.90
39847;DHT22;25517;52.422;10.782;2022-09-09T05:26:58;14.80;99.90
39847;DHT22;25517;52.422;10.782;2022-09-09T05:29:25;14.90;99.90
39847;DHT22;25517;52.422;10.782;2022-09-09T05:31:51;14.90;99.90
39847;DHT22;25517;52.422;10.782;2022-09-09T05:34:17;14.90;99.90
39847;DHT22;25517;52.422;10.782;2022-09-09T05:36:42;14.90;99.90
39847;DHT22;25517;52.422;10.782;2022-09-09T05:39:08;15.00;99.90
39847;DHT22;25517;52.422;10.782;2022-09-09T05:41:34;15.00;99.90
39847;DHT22;25517;52.422;10.782;2022-09-09T05:44:01;15.00;99.90
39847;DHT22;25517;52.422;10.782;2022-09-09T05:46:27;15.00;99.90
39847;DHT22;25517;52.422;10.782;2022-09-09T05:48:52;15.00;99.90
39847;DHT22;25517;52.422;10.782;2022-09-09T05:51:24;15.10;99.90
39847;DHT22;25517;52.422;10.782;2022-09-09T05:53:50;15.10;99.90
39847;DHT22;25517;52.422;10.782;2022-09-09T05:56:22;15.20;99.90
39847;DHT22;25517;52.422;10.782;2022-09-09T05:58:50;15.20;99.90
39847;DHT22;25517;52.422;10.782;2022-09-09T06:01:19;15.20;99.90
39847;DHT22;25517;52.422;10.782;2022-09-09T06:03:46;15.30;99.90
39847;DHT22;25517;52.422;10.782;2022-09-09T06:06:17;15.30;99.90
39847;DHT22;25517;52.422;10.782;2022-09-09T06:08:44;15.30;99.90
39847;DHT22;25517;52.422;10.782;2022-09-09T06:11:13;15.30;99.90
39847;DHT22;25517;52.422;10.782;2022-09-09T06:13:39;15.30;99.90
39847;DHT22;25517;52.422;10.782;2022-09-09T06:16:09;15.30;99.90
39847;DHT22;25517;52.422;10.782;2022-09-09T06:18:36;15.30;99.90
39847;DHT22;25517;52.422;10.782;2022-09-09T06:21:04;15.30;99.90
39847;DHT22;25517;52.422;10.782;2022-09-09T06:23:31;15.40;99.90
39847;DHT22;25517;52.422;10.782;2022-09-09T06:26:09;15.40;99.90
39847;DHT22;25517;52.422;10.782;2022-09-09T06:28:35;15.60;99.90
39847;DHT22;25517;52.422;10.782;2022-09-09T06:31:07;15.70;99.90
39847;DHT22;25517;52.422;10.782;2022-09-09T06:33:38;15.90;99.90
39847;DHT22;25517;52.422;10.782;2022-09-09T06:36:10;16.00;99.90
39847;DHT22;25517;52.422;10.782;2022-09-09T06:38:36;16.10;99.90
39847;DHT22;25517;52.422;10.782;2022-09-09T06:41:01;16.30;99.90
39847;DHT22;25517;52.422;10.782;2022-09-09T06:43:27;16.40;99.90
39847;DHT22;25517;52.422;10.782;2022-09-09T06:46:06;16.40;99.90
39847;DHT22;25517;52.422;10.782;2022-09-09T06:48:33;16.40;99.90
39847;DHT22;25517;52.422;10.782;2022-09-09T06:53:32;16.10;99.90
39847;DHT22;25517;52.422;10.782;2022-09-09T06:56:00;15.90;99.90
39847;DHT22;25517;52.422;10.782;2022-09-09T06:58:26;15.70;99.90
39847;DHT22;25517;52.422;10.782;2022-09-09T07:00:51;15.60;99.90
39847;DHT22;25517;52.422;10.782;2022-09-09T07:03:18;15.50;99.90
39847;DHT22;25517;52.422;10.782;2022-09-09T07:05:43;15.40;99.90
39847;DHT22;25517;52.422;10.782;2022-09-09T07:08:18;15.40;99.90
39847;DHT22;25517;52.422;10.782;2022-09-09T07:10:43;15.40;99.90
39847;DHT22;25517;52.422;10.782;2022-09-09T07:13:09;15.30;99.90
39847;DHT22;25517;52.422;10.782;2022-09-09T07:15:35;15.30;99.90
39847;DHT22;25517;52.422;10.782;2022-09-09T07:18:01;15.30;99.90
39847;DHT22;25517;52.422;10.782;2022-09-09T07:20:27;15.40;99.90
39847;DHT22;25517;52.422;10.782;2022-09-09T07:22:55;15.50;99.90
39847;DHT22;25517;52.422;10.782;2022-09-09T07:25:20;15.70;99.90
39847;DHT22;25517;52.422;10.782;2022-09-09T07:27:47;16.00;99.90
39847;DHT22;25517;52.422;10.782;2022-09-09T07:30:12;16.20;99.90
39847;DHT22;25517;52.422;10.782;2022-09-09T07:32:38;16.40;99.90
39847;DHT22;25517;52.422;10.782;2022-09-09T07:35:04;16.40;99.90
39847;DHT22;25517;52.422;10.782;2022-09-09T07:37:29;16.40;99.90
39847;DHT22;25517;52.422;10.782;2022-09-09T07:39:54;16.50;99.90
39847;DHT22;25517;52.422;10.782;2022-09-09T07:42:20;16.50;99.90
39847;DHT22;25517;52.422;10.782;2022-09-09T07:44:45;16.60;99.90
39847;DHT22;25517;52.422;10.782;2022-09-09T07:47:11;16.60;99.90
39847;DHT22;25517;52.422;10.782;2022-09-09T07:49:36;16.70;99.90
39847;DHT22;25517;52.422;10.782;2022-09-09T07:52:02;16.80;99.90
39847;DHT22;25517;52.422;10.782;2022-09-09T07:54:28;16.90;99.90
39847;DHT22;25517;52.422;10.782;2022-09-09T07:56:54;17.10;99.90
39847;DHT22;25517;52.422;10.782;2022-09-09T07:59:19;17.50;99.90
39847;DHT22;25517;52.422;10.782;2022-09-09T08:01:47;17.90;99.90
39847;DHT22;25517;52.422;10.782;2022-09-09T08:04:15;18.30;99.90
39847;DHT22;25517;52.422;10.782;2022-09-09T08:06:44;18.60;99.90
39847;DHT22;25517;52.422;10.782;2022-09-09T08:09:12;18.80;99.90
39847;DHT22;25517;52.422;10.782;2022-09-09T08:11:38;18.50;99.90
39847;DHT22;25517;52.422;10.782;2022-09-09T08:14:04;18.30;99.90
39847;DHT22;25517;52.422;10.782;2022-09-09T08:16:33;18.10;99.90
39847;DHT22;25517;52.422;10.782;2022-09-09T08:18:59;18.20;99.90
39847;DHT22;25517;52.422;10.782;2022-09-09T08:21:27;18.60;99.90
39847;DHT22;25517;52.422;10.782;2022-09-09T08:23:54;18.70;99.90
39847;DHT22;25517;52.422;10.782;2022-09-09T08:26:25;18.80;99.90
39847;DHT22;25517;52.422;10.782;2022-09-09T08:28:53;18.70;99.90
39847;DHT22;25517;52.422;10.782;2022-09-09T08:31:25;18.90;99.90
39847;DHT22;25517;52.422;10.782;2022-09-09T08:33:50;19.40;99.90
39847;DHT22;25517;52.422;10.782;2022-09-09T08:36:18;20.20;99.90
39847;DHT22;25517;52.422;10.782;2022-09-09T08:38:47;21.30;99.90
39847;DHT22;25517;52.422;10.782;2022-09-09T08:44:34;22.70;99.90
39847;DHT22;25517;52.422;10.782;2022-09-09T08:47:37;22.80;99.90
39847;DHT22;25517;52.422;10.782;2022-09-09T08:50:26;23.30;99.90
39847;DHT22;25517;52.422;10.782;2022-09-09T08:55:50;23.80;99.90
39847;DHT22;25517;52.422;10.782;2022-09-09T08:58:27;24.20;99.90
39847;DHT22;25517;52.422;10.782;2022-09-09T09:01:28;24.20;99.90
39847;DHT22;25517;52.422;10.782;2022-09-09T09:04:07;23.70;99.90
39847;DHT22;25517;52.422;10.782;2022-09-09T09:09:42;22.60;99.90
39847;DHT22;25517;52.422;10.782;2022-09-09T09:12:23;24.10;99.90
39847;DHT22;25517;52.422;10.782;2022-09-09T09:14:50;24.40;99.10
39847;DHT22;25517;52.422;10.782;2022-09-09T09:17:20;25.40;95.10
39847;DHT22;25517;52.422;10.782;2022-09-09T09:19:48;24.90;94.60
39847;DHT22;25517;52.422;10.782;2022-09-09T09:22:31;24.30;96.30
39847;DHT22;25517;52.422;10.782;2022-09-09T09:25:09;23.40;96.90
39847;DHT22;25517;52.422;10.782;2022-09-09T09:27:44;22.40;99.10
39847;DHT22;25517;52.422;10.782;2022-09-09T09:30:17;22.40;99.90
39847;DHT22;25517;52.422;10.782;2022-09-09T09:35:17;24.80;96.60
39847;DHT22;25517;52.422;10.782;2022-09-09T09:37:43;26.20;95.40
39847;DHT22;25517;52.422;10.782;2022-09-09T09:40:13;27.30;90.60
39847;DHT22;25517;52.422;10.782;2022-09-09T09:42:52;27.60;87.60
39847;DHT22;25517;52.422;10.782;2022-09-09T09:45:40;28.10;84.80
39847;DHT22;25517;52.422;10.782;2022-09-09T09:48:10;29.40;87.90
39847;DHT22;25517;52.422;10.782;2022-09-09T09:50:47;30.90;80.70
39847;DHT22;25517;52.422;10.782;2022-09-09T09:53:26;30.90;77.40
39847;DHT22;25517;52.422;10.782;2022-09-09T09:55:58;31.50;72.50
39847;DHT22;25517;52.422;10.782;2022-09-09T09:58:25;31.50;68.40
39847;DHT22;25517;52.422;10.782;2022-09-09T10:00:52;30.80;71.80
39847;DHT22;25517;52.422;10.782;2022-09-09T10:05:48;32.30;65.90
39847;DHT22;25517;52.422;10.782;2022-09-09T10:08:16;31.10;64.90
39847;DHT22;25517;52.422;10.782;2022-09-09T10:19:16;29.10;72.80
39847;DHT22;25517;52.422;10.782;2022-09-09T10:22:16;29.10;73.80
39847;DHT22;25517;52.422;10.782;2022-09-09T10:27:55;27.90;77.10
39847;DHT22;25517;52.422;10.782;2022-09-09T10:33:15;30.20;69.80
39847;DHT22;25517;52.422;10.782;2022-09-09T10:35:50;31.70;67.90
39847;DHT22;25517;52.422;10.782;2022-09-09T10:38:29;32.60;64.20
39847;DHT22;25517;52.422;10.782;2022-09-09T10:48:55;30.60;65.20
39847;DHT22;25517;52.422;10.782;2022-09-09T10:56:43;29.40;68.20
39847;DHT22;25517;52.422;10.782;2022-09-09T10:59:17;31.10;63.30
39847;DHT22;25517;52.422;10.782;2022-09-09T11:01:52;30.70;60.70
39847;DHT22;25517;52.422;10.782;2022-09-09T11:04:25;29.80;64.00
39847;DHT22;25517;52.422;10.782;2022-09-09T11:06:55;27.50;67.40
39847;DHT22;25517;52.422;10.782;2022-09-09T11:09:24;27.40;69.10
39847;DHT22;25517;52.422;10.782;2022-09-09T11:11:54;27.30;69.60
39847;DHT22;25517;52.422;10.782;2022-09-09T11:14:40;28.00;70.10
39847;DHT22;25517;52.422;10.782;2022-09-09T11:17:14;28.10;67.40
39847;DHT22;25517;52.422;10.782;2022-09-09T11:19:41;28.70;68.70
39847;DHT22;25517;52.422;10.782;2022-09-09T11:24:57;29.30;65.80
39847;DHT22;25517;52.422;10.782;2022-09-09T11:27:41;27.30;67.90
39847;DHT22;25517;52.422;10.782;2022-09-09T11:33:31;25.90;74.00
39847;DHT22;25517;52.422;10.782;2022-09-09T11:36:27;25.10;75.70
39847;DHT22;25517;52.422;10.782;2022-09-09T11:41:53;23.90;82.30
39847;DHT22;25517;52.422;10.782;2022-09-09T11:44:28;23.60;82.40
39847;DHT22;25517;52.422;10.782;2022-09-09T11:46:54;23.60;85.00
39847;DHT22;25517;52.422;10.782;2022-09-09T11:49:28;23.50;84.20
39847;DHT22;25517;52.422;10.782;2022-09-09T11:51:56;23.60;84.00
39847;DHT22;25517;52.422;10.782;2022-09-09T11:54:30;23.50;87.20
39847;DHT22;25517;52.422;10.782;2022-09-09T11:56:57;23.30;84.10
39847;DHT22;25517;52.422;10.782;2022-09-09T11:59:31;23.30;85.40
39847;DHT22;25517;52.422;10.782;2022-09-09T12:02:10;23.40;86.50
39847;DHT22;25517;52.422;10.782;2022-09-09T12:04:46;23.10;84.40
39847;DHT22;25517;52.422;10.782;2022-09-09T12:07:41;23.50;84.90
39847;DHT22;25517;52.422;10.782;2022-09-09T12:12:53;23.20;84.60
39847;DHT22;25517;52.422;10.782;2022-09-09T12:15:24;22.90;86.60
39847;DHT22;25517;52.422;10.782;2022-09-09T12:17:55;22.90;87.00
39847;DHT22;25517;52.422;10.782;2022-09-09T12:20:30;23.00;88.50
39847;DHT22;25517;52.422;10.782;2022-09-09T12:23:15;22.90;88.90
39847;DHT22;25517;52.422;10.782;2022-09-09T12:31:12;21.30;90.90
39847;DHT22;25517;52.422;10.782;2022-09-09T12:33:44;20.90;92.30
39847;DHT22;25517;52.422;10.782;2022-09-09T12:36:15;20.70;93.90
39847;DHT22;25517;52.422;10.782;2022-09-09T12:38:43;20.50;95.50
39847;DHT22;25517;52.422;10.782;2022-09-09T12:41:25;20.40;96.00
39847;DHT22;25517;52.422;10.782;2022-09-09T12:44:02;20.50;96.00
39847;DHT22;25517;52.422;10.782;2022-09-09T12:46:35;20.90;95.90
39847;DHT22;25517;52.422;10.782;2022-09-09T12:49:02;21.60;96.90
39847;DHT22;25517;52.422;10.782;2022-09-09T12:51:30;22.10;93.60
39847;DHT22;25517;52.422;10.782;2022-09-09T12:53:57;22.40;93.80
39847;DHT22;25517;52.422;10.782;2022-09-09T12:56:26;22.70;92.00
39847;DHT22;25517;52.422;10.782;2022-09-09T12:58:53;23.00;91.50
39847;DHT22;25517;52.422;10.782;2022-09-09T13:01:25;23.30;90.70
39847;DHT22;25517;52.422;10.782;2022-09-09T13:03:51;23.30;89.20
39847;DHT22;25517;52.422;10.782;2022-09-09T13:06:24;23.40;91.40
39847;DHT22;25517;52.422;10.782;2022-09-09T13:08:54;23.60;90.90
39847;DHT22;25517;52.422;10.782;2022-09-09T13:11:35;23.90;91.50
39847;DHT22;25517;52.422;10.782;2022-09-09T13:14:02;24.00;90.80
39847;DHT22;25517;52.422;10.782;2022-09-09T13:16:35;23.90;90.20
39847;DHT22;25517;52.422;10.782;2022-09-09T13:19:09;23.80;91.30
39847;DHT22;25517;52.422;10.782;2022-09-09T13:21:39;23.60;90.60
39847;DHT22;25517;52.422;10.782;2022-09-09T13:24:07;23.40;91.70
39847;DHT22;25517;52.422;10.782;2022-09-09T13:26:58;23.20;92.50
39847;DHT22;25517;52.422;10.782;2022-09-09T13:29:24;23.00;91.80
39847;DHT22;25517;52.422;10.782;2022-09-09T13:31:50;22.80;92.60
39847;DHT22;25517;52.422;10.782;2022-09-09T13:34:29;22.50;92.80
39847;DHT22;25517;52.422;10.782;2022-09-09T13:37:02;22.20;93.70
39847;DHT22;25517;52.422;10.782;2022-09-09T13:39:28;22.10;94.60
39847;DHT22;25517;52.422;10.782;2022-09-09T13:41:54;22.20;94.30
39847;DHT22;25517;52.422;10.782;2022-09-09T13:44:24;22.20;94.50
39847;DHT22;25517;52.422;10.782;2022-09-09T13:47:19;22.40;96.00
39847;DHT22;25517;52.422;10.782;2022-09-09T13:49:45;22.50;96.00
39847;DHT22;25517;52.422;10.782;2022-09-09T13:52:16;22.60;95.40
39847;DHT22;25517;52.422;10.782;2022-09-09T13:54:49;22.70;95.80
39847;DHT22;25517;52.422;10.782;2022-09-09T13:57:18;22.80;94.70
39847;DHT22;25517;52.422;10.782;2022-09-09T13:59:45;22.80;93.90
39847;DHT22;25517;52.422;10.782;2022-09-09T14:02:11;22.60;93.00
39847;DHT22;25517;52.422;10.782;2022-09-09T14:04:37;22.40;94.50
39847;DHT22;25517;52.422;10.782;2022-09-09T14:07:03;22.20;94.50
39847;DHT22;25517;52.422;10.782;2022-09-09T14:09:28;22.00;94.40
39847;DHT22;25517;52.422;10.782;2022-09-09T14:11:54;22.00;95.80
39847;DHT22;25517;52.422;10.782;2022-09-09T14:14:22;22.10;94.80
39847;DHT22;25517;52.422;10.782;2022-09-09T14:16:48;22.20;94.60
39847;DHT22;25517;52.422;10.782;2022-09-09T14:19:13;22.30;95.00
39847;DHT22;25517;52.422;10.782;2022-09-09T14:21:39;22.50;93.20
39847;DHT22;25517;52.422;10.782;2022-09-09T14:24:05;22.60;92.80
39847;DHT22;25517;52.422;10.782;2022-09-09T14:26:31;22.80;94.30
39847;DHT22;25517;52.422;10.782;2022-09-09T14:28:57;23.00;93.50
39847;DHT22;25517;52.422;10.782;2022-09-09T14:31:23;23.10;93.60
39847;DHT22;25517;52.422;10.782;2022-09-09T14:33:49;23.20;93.00
39847;DHT22;25517;52.422;10.782;2022-09-09T14:36:16;23.40;92.70
39847;DHT22;25517;52.422;10.782;2022-09-09T14:38:41;23.50;92.40
39847;DHT22;25517;52.422;10.782;2022-09-09T14:41:13;23.60;91.80
39847;DHT22;25517;52.422;10.782;2022-09-09T14:43:39;23.80;91.80
39847;DHT22;25517;52.422;10.782;2022-09-09T14:46:13;24.00;90.80
39847;DHT22;25517;52.422;10.782;2022-09-09T14:48:39;24.00;90.00
39847;DHT22;25517;52.422;10.782;2022-09-09T14:51:11;24.00;90.20
39847;DHT22;25517;52.422;10.782;2022-09-09T14:53:38;24.10;90.90
39847;DHT22;25517;52.422;10.782;2022-09-09T14:56:09;23.80;88.60
39847;DHT22;25517;52.422;10.782;2022-09-09T14:58:35;23.90;90.60
39847;DHT22;25517;52.422;10.782;2022-09-09T15:01:12;23.90;90.30
39847;DHT22;25517;52.422;10.782;2022-09-09T15:03:39;23.90;90.40
39847;DHT22;25517;52.422;10.782;2022-09-09T15:06:15;23.80;90.00
39847;DHT22;25517;52.422;10.782;2022-09-09T15:08:42;23.60;90.00
39847;DHT22;25517;52.422;10.782;2022-09-09T15:11:10;23.60;90.10
39847;DHT22;25517;52.422;10.782;2022-09-09T15:13:36;23.70;90.00
39847;DHT22;25517;52.422;10.782;2022-09-09T15:16:06;23.70;90.10
39847;DHT22;25517;52.422;10.782;2022-09-09T15:18:32;23.50;90.60
39847;DHT22;25517;52.422;10.782;2022-09-09T15:20:59;23.30;90.30
39847;DHT22;25517;52.422;10.782;2022-09-09T15:23:25;23.00;90.10
39847;DHT22;25517;52.422;10.782;2022-09-09T15:25:55;22.80;91.00
39847;DHT22;25517;52.422;10.782;2022-09-09T15:28:22;22.50;90.80
39847;DHT22;25517;52.422;10.782;2022-09-09T15:30:49;22.20;92.20
39847;DHT22;25517;52.422;10.782;2022-09-09T15:33:14;22.10;91.10
39847;DHT22;25517;52.422;10.782;2022-09-09T15:35:40;21.90;92.90
39847;DHT22;25517;52.422;10.782;2022-09-09T15:38:06;21.80;92.00
39847;DHT22;25517;52.422;10.782;2022-09-09T15:40:31;21.70;94.10
39847;DHT22;25517;52.422;10.782;2022-09-09T15:43:00;21.50;95.70
39847;DHT22;25517;52.422;10.782;2022-09-09T15:45:26;21.40;93.90
39847;DHT22;25517;52.422;10.782;2022-09-09T15:47:52;21.30;96.90
39847;DHT22;25517;52.422;10.782;2022-09-09T15:50:17;21.20;95.30
39847;DHT22;25517;52.422;10.782;2022-09-09T15:52:43;21.20;96.50
39847;DHT22;25517;52.422;10.782;2022-09-09T15:55:09;21.20;95.90
39847;DHT22;25517;52.422;10.782;2022-09-09T15:57:35;21.20;96.40
39847;DHT22;25517;52.422;10.782;2022-09-09T16:00:02;21.20;97.30
39847;DHT22;25517;52.422;10.782;2022-09-09T16:02:28;21.30;96.00
39847;DHT22;25517;52.422;10.782;2022-09-09T16:04:55;21.40;94.50
39847;DHT22;25517;52.422;10.782;2022-09-09T16:07:20;21.50;94.40
39847;DHT22;25517;52.422;10.782;2022-09-09T16:09:46;21.50;94.40
39847;DHT22;25517;52.422;10.782;2022-09-09T16:12:11;21.60;94.20
39847;DHT22;25517;52.422;10.782;2022-09-09T16:14:38;21.50;94.50
39847;DHT22;25517;52.422;10.782;2022-09-09T16:17:05;21.50;94.60
39847;DHT22;25517;52.422;10.782;2022-09-09T16:19:31;21.40;95.80
39847;DHT22;25517;52.422;10.782;2022-09-09T16:21:56;21.30;96.70
39847;DHT22;25517;52.422;10.782;2022-09-09T16:24:22;21.30;96.80
39847;DHT22;25517;52.422;10.782;2022-09-09T16:26:51;21.20;96.00
39847;DHT22;25517;52.422;10.782;2022-09-09T16:29:18;21.10;97.50
39847;DHT22;25517;52.422;10.782;2022-09-09T16:31:45;21.10;96.80
39847;DHT22;25517;52.422;10.782;2022-09-09T16:34:12;21.10;96.10
39847;DHT22;25517;52.422;10.782;2022-09-09T16:36:39;21.10;96.20
39847;DHT22;25517;52.422;10.782;2022-09-09T16:39:09;21.10;96.60
39847;DHT22;25517;52.422;10.782;2022-09-09T16:41:36;21.10;96.30
39847;DHT22;25517;52.422;10.782;2022-09-09T16:44:04;21.20;97.30
39847;DHT22;25517;52.422;10.782;2022-09-09T16:46:32;21.10;96.70
39847;DHT22;25517;52.422;10.782;2022-09-09T16:49:00;21.10;97.00
39847;DHT22;25517;52.422;10.782;2022-09-09T16:51:28;21.10;96.70
39847;DHT22;25517;52.422;10.782;2022-09-09T16:53:55;21.10;97.20
39847;DHT22;25517;52.422;10.782;2022-09-09T16:56:24;21.00;98.00
39847;DHT22;25517;52.422;10.782;2022-09-09T16:58:58;20.90;98.50
39847;DHT22;25517;52.422;10.782;2022-09-09T17:01:35;20.80;98.10
39847;DHT22;25517;52.422;10.782;2022-09-09T17:04:04;20.80;99.60